SBCO

Details ICAO SBCO
Name Canoas
Region Brazil
Timezone America/Sao_Paulo (UTC-2.0)
Plans Departing 14
Arriving 7
Stats Elevation 26 ft / 8 m (AMSL)
Location -29.945944° -51.144367°
Runways 1
Magnetic Variation 16.918° W
Sunrise 2017-12-18 08:20:32 UTC / 2017-12-18 06:20:32 Local
Sunset 2017-12-18 22:24:41 UTC / 2017-12-18 20:24:41 Local
Advertisement - Login to hide

Runways

ID Width Length Bearing (true) Bearing (mag) Surface Threshold Offset Overrun Length
12 145 ft / 44 m 9,027 ft / 2,751 m 109.57° 126.49° Asphalt 0 ft / 0 m 1,159 ft / 353 m
30 145 ft / 44 m 9,027 ft / 2,751 m 289.56° 306.48° Asphalt 0 ft / 0 m 1,025 ft / 312 m

Map

Weather


0- 5 10 15 20 25 30 35+ Temperature / ° C

Clouds and Precipitation
Forecast for 2017-12-18 12:00 UTC. Updated 2 hours ago

Ground ~20,000 ft ~40,000 ft Winds

METAR

Not found

TAF

TAF SBCO 180030Z 1806/1818 31007KT 9999 SCT010 TN20/1808Z TX25/1817Z BECMG 1808/1810 12010KT BKN020 RMK PEB

Frequencies

Recorded 127.85 MHz ATIS
Tower 122.80 MHz TWR
Approach 119.00 MHz PALEGRE APP
Approach 120.55 MHz PALEGRE APP
Ground 121.70 MHz GND
Tower 118.50 MHz TWR
Approach 120.10 MHz PALEGRE APP
Approach 128.90 MHz PALEGRE APP
Warning: Do not use this data for real-world aviation or navigation. No guarantee of current accuracy is given.